CheckWX is a tool to help pilots better visualize weather data.  It is not intended as a substitute for an official pre-flight weather briefing.

00:53:56 UTC

KSUZ METAR
Saline County Regional Airport
Benton, Arkansas, USA
Current

19 mins ago

KSUZ 230035Z AUTO 00000KT 10SM CLR 12/07 A3011 RMK A01
Observed
Oct-23 @ 00:35 UTC
Visibility
10 SM
Flight Rules
VFR
Cloud Levels
  • Clear skies
Temperature
12°C / 54°F
Dewpoint
C / 45°F
Humidity
72%
Altimeter
30.11" Hg
Pressure
1019.62 hPa
Previous

39 mins ago

KSUZ 230015Z AUTO 00000KT 8SM CLR 13/05 A3011 RMK A01
Observed
Oct-23 @ 00:15 UTC
Visibility
8 SM
Flight Rules
VFR
Cloud Levels
  • Clear skies
Temperature
13°C / 55°F
Dewpoint
C / 41°F
Humidity
59%
Altimeter
30.11" Hg
Pressure
1019.62 hPa
Previous

59 mins ago

KSUZ 222355Z AUTO 00000KT 10SM CLR 17/01 A3010 RMK A01
Observed
Oct-22 @ 23:55 UTC
Visibility
10 SM
Flight Rules
VFR
Cloud Levels
  • Clear skies
Temperature
17°C / 63°F
Dewpoint
C / 34°F
Humidity
34%
Altimeter
30.1" Hg
Pressure
1019.32 hPa